OpenWheelWorld.net Home
scott dixon
linker balk RSS Feed
Firestone Grand Prix of Monterey  
Track: Laguna Seca  
Type: Roadcourse  
Length: 3.602 km.  
Trackrecord: 1:07.722  
Mario Dominguez Mario Dominguez "Laguna Seca is a beautiful track with lots of changes in elevation. It is very fast with no room for error. The corkscrew, turn 7, is great for the drivers as well as the fans."  
Free practice 2  
P Driver Team Time GL GP AVG  
1. R. Hunter-Reay Andretti Autosport 1:09.910 0.000  
2. F. Rosenqvist (R) Ganassi Racing 1:09.930 0.020 0.000  
3. C. Herta (R) HS Racing 1:09.932 0.021 0.001 0.000  
4. S. Pagenaud Team Penske 1:10.135 0.225 0.204 0.000  
5. S. Ferrucci (R) Dale Coyne 1:10.207 0.296 0.071 0.000  
6. J. Newgarden Team Penske 1:10.225 0.314 0.018 0.000  
7. S. Dixon Ganassi Racing 1:10.272 0.362 0.047 0.000  
8. W. Power Team Penske 1:10.335 0.424 0.063 0.000  
9. M. Ericsson (R) Arrow Schmidt Peterson 1:10.391 0.481 0.056 0.000  
10. C. Kimball Carlin 1:10.436 0.525 0.045 0.000  
11. Mo. Andretti Andretti Autosport 1:10.443 0.532 0.007 0.000  
12. T. Sato Rahal Letterman Lanigan 1:10.447 0.536 0.004 0.000  
13. S. Pigot Ed Carpenter Racing 1:10.463 0.553 0.016 0.000  
14. C. Daly Andretti Autosport 1:10.463 0.553 0.000 0.000  
15. M. Chilton Carlin 1:10.635 0.724 0.171 0.000  
16. Z. Veach Andretti Autosport 1:10.662 0.752 0.027 0.000  
17. M. Leist A.J. Foyt Enterprises 1:10.701 0.790 0.039 0.000  
18. S. Bourdais Dale Coyne 1:10.706 0.796 0.005 0.000  
19. J. Hinchcliffe Arrow Schmidt Peterson 1:10.773 0.862 0.067 0.000  
20. G. Rahal Rahal Letterman Lanigan 1:10.881 0.970 0.108 0.000  
21. E. Jones Ed Carpenter Racing 1:10.885 0.974 0.004 0.000  
22. T. Kanaan A.J. Foyt Enterprises 1:10.948 1.038 0.064 0.000  
23. A. Rossi Andretti Autosport 1:11.023 1.113 0.075 0.000  
24. J. Harvey Meyer-Shank Racing 1:11.058 1.148 0.035 0.000  
 

P Position | GL Gap Leader | GP Gap Previous | AVG Average Speed